Time;durP1;ratioP1;P1;durP2;ratioP2;P2;SDS_P1;SDS_P2;PMS_P1;PMS_P2;Temp;Humidity;BMP_temperature;BMP_pressure;BME280_temperature;BME280_humidity;BME280_pressure;Samples;Min_cycle;Max_cycle;Signal;HPM_P1;HPM_P2
2023/08/08 00:02:05;;;;;;;3.92;2.10;;;;;;;;;;4937244;29;20048;-92
2023/08/08 00:04:32;;;;;;;4.47;2.25;;;;;;;;;;4935802;29;20416;-92
2023/08/08 00:07:02;;;;;;;4.72;2.92;;;;;;;;;;4920939;29;20051;-91
2023/08/08 00:09:29;;;;;;;7.45;2.15;;;;;;;;;;4928471;29;20550;-92
2023/08/08 00:12:00;;;;;;;6.40;2.60;;;;;;;;;;4921374;29;20052;-92
2023/08/08 00:14:28;;;;;;;4.20;2.65;;;;;;;;;;4938020;29;20275;-92
2023/08/08 00:16:55;;;;;;;2.58;1.90;;;;;;;;;;4936164;29;20051;-92
2023/08/08 00:19:25;;;;;;;4.28;2.50;;;;;;;;;;4903799;29;20423;-92
2023/08/08 00:21:55;;;;;;;4.90;2.75;;;;;;;;;;4932650;29;20063;-92
2023/08/08 00:24:22;;;;;;;4.97;2.50;;;;;;;;;;4945263;29;20047;-92
2023/08/08 00:26:50;;;;;;;6.47;2.63;;;;;;;;;;4902096;29;20055;-92
2023/08/08 00:29:21;;;;;;;12.40;2.40;;;;;;;;;;4918281;29;20068;-93
2023/08/08 00:31:48;;;;;;;8.02;1.83;;;;;;;;;;4915706;29;20082;-93
2023/08/08 00:34:16;;;;;;;5.05;2.50;;;;;;;;;;4935254;29;20074;-92
2023/08/08 00:36:45;;;;;;;15.30;3.25;;;;;;;;;;4913204;29;20430;-92
2023/08/08 00:39:15;;;;;;;3.17;2.55;;;;;;;;;;4926874;29;20059;-92
2023/08/08 00:41:42;;;;;;;3.95;2.90;;;;;;;;;;4907528;29;20431;-92
2023/08/08 00:44:12;;;;;;;6.70;2.25;;;;;;;;;;4910262;29;20062;-93
2023/08/08 00:46:40;;;;;;;5.53;2.78;;;;;;;;;;4928893;29;20063;-91
2023/08/08 00:49:12;;;;;;;9.98;3.08;;;;;;;;;;4930592;29;20064;-93
2023/08/08 00:51:40;;;;;;;4.32;2.38;;;;;;;;;;4935336;29;20530;-92
2023/08/08 00:54:11;;;;;;;3.83;2.50;;;;;;;;;;4912680;29;20062;-91
2023/08/08 00:56:38;;;;;;;2.97;2.15;;;;;;;;;;4918783;29;20059;-92
2023/08/08 00:59:06;;;;;;;3.00;2.15;;;;;;;;;;4919223;29;20048;-92
2023/08/08 01:01:36;;;;;;;3.75;2.22;;;;;;;;;;4909771;29;20051;-92
2023/08/08 01:04:06;;;;;;;3.33;2.22;;;;;;;;;;4928080;29;20052;-91
2023/08/08 01:06:39;;;;;;;3.45;2.75;;;;;;;;;;4919122;29;20051;-92
2023/08/08 01:09:12;;;;;;;5.45;2.50;;;;;;;;;;4935257;29;20059;-92
2023/08/08 01:11:39;;;;;;;3.80;2.00;;;;;;;;;;4921277;29;20059;-94
2023/08/08 01:14:08;;;;;;;3.00;1.85;;;;;;;;;;4927430;29;21509;-92
2023/08/08 01:16:36;;;;;;;3.53;2.40;;;;;;;;;;4912471;29;20055;-92
2023/08/08 01:19:07;;;;;;;3.10;2.08;;;;;;;;;;4917186;29;20634;-92
2023/08/08 01:21:38;;;;;;;6.25;2.67;;;;;;;;;;4919815;29;20062;-91
2023/08/08 01:24:17;;;;;;;6.75;1.95;;;;;;;;;;4913265;29;20055;-93
2023/08/08 01:26:48;;;;;;;4.57;2.30;;;;;;;;;;4918237;29;20060;-91
2023/08/08 01:29:15;;;;;;;5.43;2.20;;;;;;;;;;4934122;29;20059;-91
2023/08/08 01:31:45;;;;;;;5.45;2.55;;;;;;;;;;4913140;29;20051;-91
2023/08/08 01:34:13;;;;;;;5.00;3.08;;;;;;;;;;4902744;29;20056;-92
2023/08/08 01:36:45;;;;;;;3.38;1.98;;;;;;;;;;4927796;29;20055;-92
2023/08/08 01:39:18;;;;;;;4.35;1.88;;;;;;;;;;4934667;29;20059;-92
2023/08/08 01:41:47;;;;;;;3.92;2.00;;;;;;;;;;4911745;29;20439;-92
2023/08/08 01:44:18;;;;;;;2.33;1.77;;;;;;;;;;4919670;29;20052;-92
2023/08/08 01:46:48;;;;;;;2.70;1.70;;;;;;;;;;4900558;29;20539;-92
2023/08/08 01:49:15;;;;;;;3.47;1.73;;;;;;;;;;4916371;29;20052;-92
2023/08/08 01:51:43;;;;;;;12.18;2.30;;;;;;;;;;4904416;29;20055;-91
2023/08/08 01:54:10;;;;;;;4.85;2.65;;;;;;;;;;4920409;29;20047;-92
2023/08/08 01:56:39;;;;;;;5.32;2.05;;;;;;;;;;4922564;29;20051;-91
2023/08/08 01:59:06;;;;;;;5.25;2.85;;;;;;;;;;4926946;29;20051;-93
2023/08/08 02:01:37;;;;;;;5.80;2.55;;;;;;;;;;4917087;29;20058;-92
2023/08/08 02:04:04;;;;;;;7.38;2.13;;;;;;;;;;4911623;29;20055;-92
2023/08/08 02:06:32;;;;;;;5.95;1.98;;;;;;;;;;4901245;29;20056;-91
2023/08/08 02:09:02;;;;;;;3.60;2.53;;;;;;;;;;4925515;29;20067;-92
2023/08/08 02:11:31;;;;;;;5.53;2.55;;;;;;;;;;4918121;29;20664;-92
2023/08/08 02:14:01;;;;;;;3.55;2.10;;;;;;;;;;4925701;29;20051;-93
2023/08/08 02:16:28;;;;;;;6.93;3.13;;;;;;;;;;4921087;29;20055;-92
2023/08/08 02:18:56;;;;;;;3.47;1.77;;;;;;;;;;4912154;29;20058;-92
2023/08/08 02:21:25;;;;;;;4.38;2.30;;;;;;;;;;4917134;29;20079;-91
2023/08/08 02:23:52;;;;;;;4.53;2.35;;;;;;;;;;4932889;29;20059;-92
2023/08/08 02:26:22;;;;;;;4.63;1.95;;;;;;;;;;4911434;29;20478;-92
2023/08/08 02:28:50;;;;;;;7.40;2.67;;;;;;;;;;4920125;29;20036;-92
2023/08/08 02:31:21;;;;;;;4.63;2.58;;;;;;;;;;4933819;29;20534;-93
2023/08/08 02:33:49;;;;;;;4.10;2.13;;;;;;;;;;4917944;29;20431;-92
2023/08/08 02:36:17;;;;;;;11.18;2.60;;;;;;;;;;4928493;29;20059;-92
2023/08/08 02:38:45;;;;;;;3.17;2.42;;;;;;;;;;4928164;29;20039;-92
2023/08/08 02:41:12;;;;;;;2.75;2.05;;;;;;;;;;4933492;29;20056;-92
2023/08/08 02:43:39;;;;;;;3.53;3.22;;;;;;;;;;4924643;29;20450;-92
2023/08/08 02:46:07;;;;;;;4.53;2.58;;;;;;;;;;4911322;29;20063;-92
2023/08/08 02:48:38;;;;;;;3.80;2.00;;;;;;;;;;4929226;29;20066;-91
2023/08/08 02:51:06;;;;;;;9.68;2.00;;;;;;;;;;4901528;29;20048;-92
2023/08/08 02:53:33;;;;;;;7.45;2.75;;;;;;;;;;4917352;29;20055;-92
2023/08/08 02:56:01;;;;;;;5.90;1.73;;;;;;;;;;4916673;29;20431;-92
2023/08/08 02:58:32;;;;;;;9.93;2.95;;;;;;;;;;4901390;29;20052;-92
2023/08/08 03:01:00;;;;;;;3.03;2.00;;;;;;;;;;4919262;29;20047;-92
2023/08/08 03:03:28;;;;;;;3.28;2.05;;;;;;;;;;4926513;29;20059;-92
2023/08/08 03:05:57;;;;;;;4.00;2.35;;;;;;;;;;4932777;29;20504;-91
2023/08/08 03:08:28;;;;;;;4.20;2.35;;;;;;;;;;4911998;29;20052;-93
2023/08/08 03:10:57;;;;;;;3.95;2.30;;;;;;;;;;4906241;29;20063;-91
2023/08/08 03:13:24;;;;;;;4.50;1.90;;;;;;;;;;4928401;29;20044;-92
2023/08/08 03:15:53;;;;;;;3.10;2.17;;;;;;;;;;4915670;29;20056;-92
2023/08/08 03:18:22;;;;;;;5.95;4.03;;;;;;;;;;4916254;29;20400;-93
2023/08/08 03:20:50;;;;;;;2.55;1.85;;;;;;;;;;4917783;29;20454;-94
2023/08/08 03:23:21;;;;;;;3.72;2.35;;;;;;;;;;4936773;29;20070;-91
2023/08/08 03:25:49;;;;;;;2.30;1.95;;;;;;;;;;4919877;29;20051;-92
2023/08/08 03:28:17;;;;;;;2.72;1.85;;;;;;;;;;4920429;29;20055;-92
2023/08/08 03:30:44;;;;;;;3.75;1.95;;;;;;;;;;4912896;29;20431;-91
2023/08/08 03:33:14;;;;;;;3.45;2.28;;;;;;;;;;4915461;29;20063;-93
2023/08/08 03:35:43;;;;;;;8.20;2.40;;;;;;;;;;4932082;29;20044;-92
2023/08/08 03:38:11;;;;;;;3.03;2.20;;;;;;;;;;4920200;29;20048;-92
2023/08/08 03:40:40;;;;;;;3.65;2.28;;;;;;;;;;4930552;29;20051;-91
2023/08/08 03:43:10;;;;;;;4.90;2.45;;;;;;;;;;4911114;29;20423;-93
2023/08/08 03:45:37;;;;;;;8.63;2.53;;;;;;;;;;4936272;29;20044;-93
2023/08/08 03:48:06;;;;;;;2.35;2.15;;;;;;;;;;4914363;29;20063;-91
2023/08/08 03:50:33;;;;;;;4.05;2.03;;;;;;;;;;4927240;29;20511;-91
2023/08/08 03:53:05;;;;;;;4.53;2.60;;;;;;;;;;4914687;29;20052;-92
2023/08/08 03:55:33;;;;;;;4.65;2.50;;;;;;;;;;4902744;29;20056;-92
2023/08/08 03:58:02;;;;;;;2.53;2.33;;;;;;;;;;4918458;29;20056;-91
2023/08/08 04:00:33;;;;;;;4.13;2.33;;;;;;;;;;4919885;29;20089;-91
2023/08/08 04:03:03;;;;;;;2.88;2.30;;;;;;;;;;4925660;29;20064;-92
2023/08/08 04:05:33;;;;;;;3.30;2.38;;;;;;;;;;4909636;29;20075;-90
2023/08/08 04:08:00;;;;;;;3.67;2.22;;;;;;;;;;4934256;29;20080;-91
2023/08/08 04:10:32;;;;;;;4.07;2.10;;;;;;;;;;4936542;29;20043;-91
2023/08/08 04:13:04;;;;;;;2.47;1.88;;;;;;;;;;4918441;29;20549;-90
2023/08/08 04:15:32;;;;;;;2.33;2.03;;;;;;;;;;4932740;29;20051;-91
2023/08/08 04:18:00;;;;;;;4.47;1.83;;;;;;;;;;4917667;29;20535;-91
2023/08/08 04:20:30;;;;;;;3.42;2.63;;;;;;;;;;4919859;29;20051;-91
2023/08/08 04:22:57;;;;;;;2.08;1.70;;;;;;;;;;4935802;29;20047;-91
2023/08/08 04:25:27;;;;;;;3.83;2.03;;;;;;;;;;4911280;29;20054;-91
2023/08/08 04:27:56;;;;;;;4.38;2.05;;;;;;;;;;4917985;29;20055;-90
2023/08/08 04:30:25;;;;;;;3.50;1.88;;;;;;;;;;4928212;29;20051;-91
2023/08/08 04:32:55;;;;;;;6.60;1.75;;;;;;;;;;4928485;29;20050;-92
2023/08/08 04:35:22;;;;;;;2.10;1.67;;;;;;;;;;4934795;29;20416;-92
2023/08/08 04:37:51;;;;;;;6.40;2.85;;;;;;;;;;4918660;29;20040;-90
2023/08/08 04:40:18;;;;;;;2.95;2.10;;;;;;;;;;4929922;29;20067;-91
2023/08/08 04:42:46;;;;;;;1.77;1.55;;;;;;;;;;4933519;29;20431;-91
2023/08/08 04:45:15;;;;;;;4.75;2.00;;;;;;;;;;4931634;29;20082;-90
2023/08/08 04:47:46;;;;;;;4.13;1.90;;;;;;;;;;4926431;29;20047;-91
2023/08/08 04:50:17;;;;;;;8.20;2.10;;;;;;;;;;4935784;29;21620;-91
2023/08/08 04:52:44;;;;;;;2.90;1.80;;;;;;;;;;4936188;29;20048;-91
2023/08/08 04:55:14;;;;;;;3.15;1.65;;;;;;;;;;4902824;29;20067;-91
2023/08/08 04:57:41;;;;;;;3.88;1.75;;;;;;;;;;4923472;29;20055;-91
2023/08/08 05:00:13;;;;;;;2.88;1.60;;;;;;;;;;4926327;29;20056;-90
2023/08/08 05:02:41;;;;;;;4.10;1.80;;;;;;;;;;4934711;29;20062;-91
2023/08/08 05:05:10;;;;;;;3.05;1.52;;;;;;;;;;4923978;29;20470;-92
2023/08/08 05:07:42;;;;;;;2.33;1.65;;;;;;;;;;4921164;29;20125;-92
2023/08/08 05:10:12;;;;;;;1.95;1.75;;;;;;;;;;4935713;29;20521;-93
2023/08/08 05:12:40;;;;;;;3.25;2.25;;;;;;;;;;4935556;29;20059;-91
2023/08/08 05:15:12;;;;;;;3.78;2.10;;;;;;;;;;4935015;29;20047;-91
2023/08/08 05:17:41;;;;;;;5.80;2.00;;;;;;;;;;4915417;29;20048;-92
2023/08/08 05:20:12;;;;;;;4.97;1.95;;;;;;;;;;4916847;29;20078;-92
2023/08/08 05:22:41;;;;;;;4.00;1.63;;;;;;;;;;4910342;29;20060;-93
2023/08/08 05:25:09;;;;;;;3.25;1.65;;;;;;;;;;4910338;29;20318;-92
2023/08/08 05:27:37;;;;;;;3.05;2.65;;;;;;;;;;4922109;29;20541;-93
2023/08/08 05:30:08;;;;;;;5.68;2.05;;;;;;;;;;4920218;29;20059;-94
2023/08/08 05:32:35;;;;;;;1.95;1.50;;;;;;;;;;4920579;29;20047;-92
2023/08/08 05:35:04;;;;;;;3.03;1.73;;;;;;;;;;4928324;29;20047;-90
2023/08/08 05:37:33;;;;;;;3.97;2.15;;;;;;;;;;4927094;29;20056;-90
2023/08/08 05:40:00;;;;;;;1.92;1.35;;;;;;;;;;4930048;29;20059;-92
2023/08/08 05:42:31;;;;;;;2.08;1.23;;;;;;;;;;4899499;29;20052;-90
2023/08/08 05:45:01;;;;;;;3.15;1.38;;;;;;;;;;4929483;29;20052;-90
2023/08/08 05:47:31;;;;;;;2.83;1.70;;;;;;;;;;4910605;29;20051;-90
2023/08/08 05:49:58;;;;;;;3.25;2.00;;;;;;;;;;4922314;29;20063;-90
2023/08/08 05:52:26;;;;;;;3.40;1.67;;;;;;;;;;4927729;29;20055;-91
2023/08/08 05:55:00;;;;;;;2.92;2.00;;;;;;;;;;4912055;29;20059;-90
2023/08/08 05:57:27;;;;;;;3.13;1.52;;;;;;;;;;4924712;29;20051;-92
2023/08/08 05:59:58;;;;;;;5.13;1.73;;;;;;;;;;4930888;29;20068;-90
2023/08/08 06:02:25;;;;;;;2.35;2.15;;;;;;;;;;4918000;29;20059;-91
2023/08/08 06:04:52;;;;;;;1.63;1.35;;;;;;;;;;4930163;29;20048;-92
2023/08/08 06:07:20;;;;;;;1.77;1.50;;;;;;;;;;4911651;29;20047;-91
2023/08/08 06:09:51;;;;;;;3.28;1.65;;;;;;;;;;4916764;29;20055;-91
2023/08/08 06:12:22;;;;;;;6.18;1.65;;;;;;;;;;4911427;29;20538;-91
2023/08/08 06:14:49;;;;;;;1.90;1.70;;;;;;;;;;4911215;29;20074;-91
2023/08/08 06:17:19;;;;;;;2.63;1.20;;;;;;;;;;4915208;29;20055;-91
2023/08/08 06:19:46;;;;;;;4.45;2.00;;;;;;;;;;4900906;29;20052;-91
2023/08/08 06:22:19;;;;;;;2.87;1.70;;;;;;;;;;4916411;29;20052;-90
2023/08/08 06:24:46;;;;;;;2.65;1.42;;;;;;;;;;4931759;29;20521;-91
2023/08/08 06:27:16;;;;;;;2.17;1.50;;;;;;;;;;4914653;29;20059;-90
2023/08/08 06:29:47;;;;;;;2.65;1.92;;;;;;;;;;4928045;29;20046;-91
2023/08/08 06:32:15;;;;;;;1.65;1.30;;;;;;;;;;4932075;29;20048;-91
2023/08/08 06:34:42;;;;;;;3.63;1.90;;;;;;;;;;4931379;29;20066;-93
2023/08/08 06:37:09;;;;;;;2.85;1.60;;;;;;;;;;4934205;29;20048;-94
2023/08/08 06:39:41;;;;;;;2.70;1.70;;;;;;;;;;4918599;29;20048;-93
2023/08/08 06:42:09;;;;;;;3.83;1.92;;;;;;;;;;4924409;29;20066;-92
2023/08/08 06:44:55;;;;;;;2.27;1.40;;;;;;;;;;4916351;29;20052;-91
2023/08/08 06:47:23;;;;;;;5.38;1.52;;;;;;;;;;4906289;29;20047;-91
2023/08/08 06:49:50;;;;;;;2.88;1.45;;;;;;;;;;4910493;29;20059;-93
2023/08/08 06:52:17;;;;;;;3.47;1.80;;;;;;;;;;4917679;29;20048;-93
2023/08/08 06:54:47;;;;;;;2.25;1.60;;;;;;;;;;4929454;29;20048;-93
2023/08/08 06:57:14;;;;;;;2.28;1.65;;;;;;;;;;4938385;29;20066;-93
2023/08/08 06:59:42;;;;;;;4.38;1.50;;;;;;;;;;4939167;29;20044;-93
2023/08/08 07:02:11;;;;;;;2.60;1.33;;;;;;;;;;4938896;29;20507;-92
2023/08/08 07:04:38;;;;;;;8.77;2.17;;;;;;;;;;4914939;29;20062;-93
2023/08/08 07:07:06;;;;;;;1.83;1.25;;;;;;;;;;4935983;29;20462;-92
2023/08/08 07:09:37;;;;;;;4.75;1.50;;;;;;;;;;4914420;29;20056;-92
2023/08/08 07:12:05;;;;;;;3.35;1.55;;;;;;;;;;4937153;29;20055;-92
2023/08/08 07:14:34;;;;;;;2.78;1.83;;;;;;;;;;4920134;29;20051;-92
2023/08/08 07:17:05;;;;;;;1.63;1.30;;;;;;;;;;4935917;29;20051;-92
2023/08/08 07:19:33;;;;;;;1.23;1.05;;;;;;;;;;4915718;29;20052;-92
2023/08/08 07:22:01;;;;;;;2.85;1.40;;;;;;;;;;4929958;29;20055;-92
2023/08/08 07:24:28;;;;;;;2.83;1.75;;;;;;;;;;4921123;29;20055;-91
2023/08/08 07:26:59;;;;;;;1.48;1.00;;;;;;;;;;4936560;29;20059;-92
2023/08/08 07:29:27;;;;;;;1.45;1.30;;;;;;;;;;4932669;29;20499;-92
2023/08/08 07:31:54;;;;;;;2.17;1.40;;;;;;;;;;4935828;29;20055;-92
2023/08/08 07:34:22;;;;;;;2.15;1.35;;;;;;;;;;4937087;29;20059;-92
2023/08/08 07:36:50;;;;;;;2.72;1.80;;;;;;;;;;4937485;29;20059;-92
2023/08/08 07:39:20;;;;;;;1.85;1.27;;;;;;;;;;4900260;29;20055;-89
2023/08/08 07:41:48;;;;;;;1.88;1.65;;;;;;;;;;4906741;29;20058;-90
2023/08/08 07:44:16;;;;;;;2.65;1.20;;;;;;;;;;4934633;29;20070;-89
2023/08/08 07:46:43;;;;;;;4.95;1.52;;;;;;;;;;4936878;29;20499;-90
2023/08/08 07:49:14;;;;;;;1.75;1.25;;;;;;;;;;4921089;29;20635;-90
2023/08/08 07:51:52;;;;;;;4.47;1.48;;;;;;;;;;4916796;29;20063;-90
2023/08/08 07:54:27;;;;;;;1.80;1.10;;;;;;;;;;4929835;29;20058;-89
2023/08/08 07:56:55;;;;;;;3.63;1.23;;;;;;;;;;4939837;29;20048;-90
2023/08/08 07:59:25;;;;;;;2.78;1.20;;;;;;;;;;4937340;29;20067;-90
2023/08/08 08:02:04;;;;;;;3.13;1.23;;;;;;;;;;4947984;29;20466;-91
2023/08/08 08:04:37;;;;;;;1.83;0.88;;;;;;;;;;4923340;29;20043;-91
2023/08/08 08:07:45;;;;;;;1.30;1.20;;;;;;;;;;4937598;29;20056;-90
2023/08/08 08:10:19;;;;;;;2.47;1.02;;;;;;;;;;4932309;29;20055;-89
2023/08/08 08:12:57;;;;;;;3.17;1.80;;;;;;;;;;4938660;29;20056;-91
2023/08/08 08:15:57;;;;;;;2.72;1.15;;;;;;;;;;4943516;29;20055;-89
2023/08/08 08:18:34;;;;;;;0.80;0.80;;;;;;;;;;4951787;29;20059;-89
2023/08/08 08:21:02;;;;;;;1.60;1.25;;;;;;;;;;4917070;29;20056;-91
2023/08/08 08:24:18;;;;;;;1.50;1.30;;;;;;;;;;4929507;29;20043;-90
2023/08/08 08:27:11;;;;;;;1.08;0.98;;;;;;;;;;4936793;29;20048;-90
2023/08/08 08:29:39;;;;;;;1.25;0.82;;;;;;;;;;4905694;29;20043;-91
2023/08/08 08:32:08;;;;;;;2.15;0.90;;;;;;;;;;4928570;29;20534;-91
2023/08/08 08:35:03;;;;;;;1.77;1.02;;;;;;;;;;4932031;29;20051;-90
2023/08/08 08:37:31;;;;;;;1.30;1.00;;;;;;;;;;4936078;29;20048;-91
2023/08/08 08:40:04;;;;;;;1.67;0.90;;;;;;;;;;4920004;29;20127;-90
2023/08/08 08:42:33;;;;;;;1.65;0.95;;;;;;;;;;4937332;29;20052;-89
2023/08/08 08:45:03;;;;;;;3.05;0.77;;;;;;;;;;4918893;29;20055;-89
2023/08/08 08:47:32;;;;;;;1.23;1.00;;;;;;;;;;4935693;29;20051;-89
2023/08/08 08:50:01;;;;;;;1.95;1.20;;;;;;;;;;4919695;29;20056;-90
2023/08/08 08:52:28;;;;;;;1.73;1.08;;;;;;;;;;4922811;29;20063;-90
2023/08/08 08:54:56;;;;;;;1.10;1.00;;;;;;;;;;4918092;29;20079;-90
2023/08/08 08:57:25;;;;;;;1.45;1.00;;;;;;;;;;4935792;29;20407;-90
2023/08/08 08:59:59;;;;;;;1.53;0.77;;;;;;;;;;4919282;29;20047;-90
2023/08/08 09:02:26;;;;;;;1.10;0.88;;;;;;;;;;4918384;29;20462;-91
2023/08/08 09:05:01;;;;;;;1.77;0.80;;;;;;;;;;4934223;29;20060;-92
2023/08/08 09:07:29;;;;;;;3.85;1.60;;;;;;;;;;4934508;29;20499;-91
2023/08/08 09:09:56;;;;;;;3.28;0.90;;;;;;;;;;4929149;29;20693;-91
2023/08/08 09:12:24;;;;;;;2.25;0.85;;;;;;;;;;4906352;29;20059;-89
2023/08/08 09:14:55;;;;;;;3.60;1.10;;;;;;;;;;4920467;29;20073;-89
2023/08/08 09:17:25;;;;;;;3.83;1.40;;;;;;;;;;4935544;29;20058;-89
2023/08/08 09:19:55;;;;;;;1.42;0.88;;;;;;;;;;4909518;29;20062;-92
2023/08/08 09:22:23;;;;;;;2.55;1.10;;;;;;;;;;4900052;29;20044;-89
2023/08/08 09:24:51;;;;;;;2.47;1.98;;;;;;;;;;4933713;29;20408;-90
2023/08/08 09:27:19;;;;;;;3.10;1.35;;;;;;;;;;4931615;29;20051;-90
2023/08/08 09:29:46;;;;;;;1.58;1.10;;;;;;;;;;4927597;29;20059;-90
2023/08/08 09:32:17;;;;;;;1.88;0.80;;;;;;;;;;4934457;29;20043;-89
2023/08/08 09:34:52;;;;;;;2.10;1.33;;;;;;;;;;4913291;29;20043;-90
2023/08/08 09:37:21;;;;;;;2.22;1.00;;;;;;;;;;4935314;29;20056;-90
2023/08/08 09:39:57;;;;;;;1.45;1.00;;;;;;;;;;4918883;29;20055;-90
2023/08/08 09:42:24;;;;;;;1.60;1.15;;;;;;;;;;4932112;29;20055;-89
2023/08/08 09:44:52;;;;;;;2.10;1.33;;;;;;;;;;4917995;29;20051;-89
2023/08/08 09:47:19;;;;;;;1.00;0.88;;;;;;;;;;4934761;29;20047;-90
2023/08/08 09:49:46;;;;;;;1.83;0.98;;;;;;;;;;4920505;29;20159;-90
2023/08/08 09:52:16;;;;;;;2.97;1.10;;;;;;;;;;4934795;29;20063;-90
2023/08/08 09:54:43;;;;;;;1.63;1.33;;;;;;;;;;4909071;29;20052;-89
2023/08/08 09:57:11;;;;;;;1.42;0.90;;;;;;;;;;4915879;29;20055;-90
2023/08/08 09:59:40;;;;;;;1.02;0.70;;;;;;;;;;4914465;29;20063;-89
2023/08/08 10:02:11;;;;;;;1.08;0.90;;;;;;;;;;4928408;29;20515;-90
2023/08/08 10:04:40;;;;;;;1.77;0.95;;;;;;;;;;4905144;29;20052;-89
2023/08/08 10:07:08;;;;;;;1.85;0.90;;;;;;;;;;4942091;29;20227;-89
2023/08/08 10:09:37;;;;;;;1.83;1.00;;;;;;;;;;4936468;29;20051;-89
2023/08/08 10:12:07;;;;;;;1.38;0.85;;;;;;;;;;4924720;29;20056;-89
2023/08/08 10:14:37;;;;;;;2.63;1.15;;;;;;;;;;4932690;29;20051;-89
2023/08/08 10:17:07;;;;;;;1.25;0.95;;;;;;;;;;4917121;29;20051;-90
2023/08/08 10:19:37;;;;;;;3.03;1.10;;;;;;;;;;4932556;29;20056;-90
2023/08/08 10:22:05;;;;;;;1.80;0.90;;;;;;;;;;4933916;29;20408;-90
2023/08/08 10:24:37;;;;;;;7.30;1.15;;;;;;;;;;4917585;29;20062;-90
2023/08/08 10:27:07;;;;;;;1.20;0.80;;;;;;;;;;4923506;29;20062;-89
2023/08/08 10:29:34;;;;;;;4.40;1.13;;;;;;;;;;4926168;29;20526;-90
2023/08/08 10:32:04;;;;;;;2.15;0.90;;;;;;;;;;4923532;29;20542;-89
2023/08/08 10:34:41;;;;;;;3.17;1.40;;;;;;;;;;4933812;29;20297;-90
2023/08/08 10:37:12;;;;;;;5.25;1.30;;;;;;;;;;4904329;29;20051;-89
2023/08/08 10:39:51;;;;;;;1.80;1.05;;;;;;;;;;4925361;29;20510;-89
2023/08/08 10:42:19;;;;;;;2.47;0.93;;;;;;;;;;4913563;29;20086;-88
2023/08/08 10:44:53;;;;;;;1.48;1.20;;;;;;;;;;4925603;29;20044;-90
2023/08/08 10:47:23;;;;;;;1.98;1.13;;;;;;;;;;4926985;29;20059;-89
2023/08/08 10:49:58;;;;;;;1.90;1.10;;;;;;;;;;4915206;29;20531;-90
2023/08/08 10:52:26;;;;;;;1.30;1.00;;;;;;;;;;4933325;29;20062;-89
2023/08/08 10:54:55;;;;;;;2.42;1.40;;;;;;;;;;4934070;29;20047;-90
2023/08/08 10:57:25;;;;;;;1.50;1.13;;;;;;;;;;4901259;29;20418;-90
2023/08/08 10:59:56;;;;;;;3.20;0.93;;;;;;;;;;4916153;29;20515;-90
2023/08/08 11:02:24;;;;;;;1.85;1.00;;;;;;;;;;4921155;29;20056;-89
2023/08/08 11:04:51;;;;;;;1.10;0.88;;;;;;;;;;4916698;29;20058;-90
2023/08/08 11:07:18;;;;;;;2.70;1.23;;;;;;;;;;4917018;29;20055;-90
2023/08/08 11:09:46;;;;;;;1.13;1.00;;;;;;;;;;4919757;29;20059;-91
2023/08/08 11:12:18;;;;;;;1.55;1.00;;;;;;;;;;4921449;29;20062;-91
2023/08/08 11:14:45;;;;;;;1.03;0.77;;;;;;;;;;4933821;29;20047;-89
2023/08/08 11:17:13;;;;;;;1.40;1.27;;;;;;;;;;4904941;29;20062;-90
2023/08/08 11:19:41;;;;;;;1.48;1.10;;;;;;;;;;4904149;29;20443;-91
2023/08/08 11:22:12;;;;;;;2.53;1.65;;;;;;;;;;4925434;29;20067;-91
2023/08/08 11:24:42;;;;;;;2.67;1.40;;;;;;;;;;4904852;29;20078;-90
2023/08/08 11:27:11;;;;;;;2.78;0.90;;;;;;;;;;4933576;29;20064;-91
2023/08/08 11:29:40;;;;;;;1.90;1.15;;;;;;;;;;4931372;29;20052;-90
2023/08/08 11:32:10;;;;;;;1.20;0.98;;;;;;;;;;4933395;29;20051;-90
2023/08/08 11:34:39;;;;;;;2.63;0.85;;;;;;;;;;4923713;29;20419;-90
2023/08/08 11:37:10;;;;;;;1.73;0.90;;;;;;;;;;4910045;29;20439;-90
2023/08/08 11:39:38;;;;;;;3.08;1.38;;;;;;;;;;4933704;29;20044;-90
2023/08/08 11:42:08;;;;;;;4.28;0.90;;;;;;;;;;4917260;29;20055;-91
2023/08/08 11:44:39;;;;;;;1.33;1.10;;;;;;;;;;4936308;29;20051;-92
2023/08/08 11:47:11;;;;;;;0.88;0.60;;;;;;;;;;4919953;29;20055;-91
2023/08/08 11:49:42;;;;;;;1.60;1.00;;;;;;;;;;4920692;29;20055;-91
2023/08/08 11:52:10;;;;;;;2.08;0.90;;;;;;;;;;4935027;29;20060;-90
2023/08/08 11:54:39;;;;;;;1.98;1.27;;;;;;;;;;4920310;29;20431;-90
2023/08/08 11:57:08;;;;;;;1.23;0.93;;;;;;;;;;4927996;29;20081;-90
2023/08/08 11:59:39;;;;;;;2.60;1.05;;;;;;;;;;4917706;29;20055;-90
2023/08/08 12:02:10;;;;;;;3.00;1.08;;;;;;;;;;4925843;29;20066;-90
2023/08/08 12:04:37;;;;;;;8.70;0.90;;;;;;;;;;4934590;29;20531;-90
2023/08/08 12:07:07;;;;;;;1.48;0.95;;;;;;;;;;4926837;29;20056;-90
2023/08/08 12:09:35;;;;;;;2.92;0.85;;;;;;;;;;4914072;29;20055;-90
2023/08/08 12:12:03;;;;;;;2.58;1.02;;;;;;;;;;4936006;29;20507;-90
2023/08/08 12:14:31;;;;;;;1.98;1.00;;;;;;;;;;4910957;29;20043;-92
2023/08/08 12:17:00;;;;;;;1.45;1.10;;;;;;;;;;4918645;29;20063;-90
2023/08/08 12:19:28;;;;;;;2.22;0.80;;;;;;;;;;4910419;29;20052;-91
2023/08/08 12:21:56;;;;;;;1.13;0.93;;;;;;;;;;4903662;29;20507;-91
2023/08/08 12:24:23;;;;;;;0.85;0.60;;;;;;;;;;4934545;29;20066;-91
2023/08/08 12:26:50;;;;;;;1.15;0.60;;;;;;;;;;4916816;29;20078;-91
2023/08/08 12:29:19;;;;;;;1.10;0.73;;;;;;;;;;4930405;29;20062;-90
2023/08/08 12:31:47;;;;;;;1.48;0.85;;;;;;;;;;4925523;29;20055;-90
2023/08/08 12:34:15;;;;;;;1.17;0.70;;;;;;;;;;4934612;29;20055;-91
2023/08/08 12:36:43;;;;;;;2.58;0.90;;;;;;;;;;4918348;29;20077;-92
2023/08/08 12:39:11;;;;;;;3.72;1.00;;;;;;;;;;4929631;29;20051;-90
2023/08/08 12:41:46;;;;;;;1.35;0.90;;;;;;;;;;4914367;29;20059;-90
2023/08/08 12:44:16;;;;;;;1.50;0.90;;;;;;;;;;4931131;29;20066;-91
2023/08/08 12:46:43;;;;;;;1.20;0.88;;;;;;;;;;4917685;29;20051;-91
2023/08/08 12:49:11;;;;;;;1.30;1.00;;;;;;;;;;4930975;29;20067;-90
2023/08/08 12:51:42;;;;;;;0.95;0.75;;;;;;;;;;4917430;29;20056;-91
2023/08/08 12:54:10;;;;;;;1.85;0.88;;;;;;;;;;4926235;29;20055;-91
2023/08/08 12:56:40;;;;;;;1.92;1.42;;;;;;;;;;4921353;29;20052;-90
2023/08/08 12:59:07;;;;;;;1.70;1.30;;;;;;;;;;4919821;29;20055;-91
2023/08/08 13:01:37;;;;;;;2.63;1.30;;;;;;;;;;4934965;29;20051;-91
2023/08/08 13:04:07;;;;;;;2.38;1.05;;;;;;;;;;4920729;29;20052;-90
2023/08/08 13:06:38;;;;;;;1.25;0.70;;;;;;;;;;4935755;29;20055;-91
2023/08/08 13:09:07;;;;;;;1.48;0.95;;;;;;;;;;4919049;29;20066;-92
2023/08/08 13:11:35;;;;;;;1.42;0.98;;;;;;;;;;4934440;29;20078;-91
2023/08/08 13:14:02;;;;;;;1.88;1.40;;;;;;;;;;4943385;29;20422;-90
2023/08/08 13:16:29;;;;;;;1.30;0.82;;;;;;;;;;4916626;29;20435;-90
2023/08/08 13:18:59;;;;;;;3.75;1.52;;;;;;;;;;4926381;29;20044;-91
2023/08/08 13:21:27;;;;;;;5.28;0.90;;;;;;;;;;4918448;29;20051;-92
2023/08/08 13:23:54;;;;;;;1.25;1.05;;;;;;;;;;4918698;29;20051;-90
2023/08/08 13:26:23;;;;;;;2.47;0.73;;;;;;;;;;4925810;29;20391;-90
2023/08/08 13:28:50;;;;;;;1.38;0.98;;;;;;;;;;4926559;29;20047;-91
2023/08/08 13:31:18;;;;;;;1.05;0.77;;;;;;;;;;4934905;29;20422;-89
2023/08/08 13:33:47;;;;;;;2.10;1.08;;;;;;;;;;4910325;29;20062;-90
2023/08/08 13:36:17;;;;;;;4.07;1.02;;;;;;;;;;4934514;29;20055;-90
2023/08/08 13:38:47;;;;;;;1.65;0.85;;;;;;;;;;4912482;29;20062;-90
2023/08/08 13:41:17;;;;;;;1.83;0.90;;;;;;;;;;4923766;29;20059;-91
2023/08/08 13:43:45;;;;;;;1.33;1.08;;;;;;;;;;4934073;29;20051;-90
2023/08/08 13:46:15;;;;;;;2.28;0.90;;;;;;;;;;4927109;29;20054;-90
2023/08/08 13:48:43;;;;;;;0.93;0.80;;;;;;;;;;4926883;29;20047;-90
2023/08/08 13:51:11;;;;;;;1.27;0.90;;;;;;;;;;4935618;29;20051;-90
2023/08/08 13:53:41;;;;;;;2.83;1.27;;;;;;;;;;4929014;29;20052;-90
2023/08/08 13:56:10;;;;;;;0.70;0.65;;;;;;;;;;4920980;29;20051;-89
2023/08/08 13:58:38;;;;;;;3.15;1.10;;;;;;;;;;4928584;29;20074;-91
2023/08/08 14:01:07;;;;;;;2.47;1.10;;;;;;;;;;4897258;29;20047;-90
2023/08/08 14:03:35;;;;;;;2.17;0.93;;;;;;;;;;4928076;29;20063;-91
2023/08/08 14:06:06;;;;;;;1.15;0.95;;;;;;;;;;4915855;29;20503;-90
2023/08/08 14:08:33;;;;;;;2.55;1.15;;;;;;;;;;4916951;29;20055;-90
2023/08/08 14:11:00;;;;;;;1.08;0.90;;;;;;;;;;4932631;29;20051;-90
2023/08/08 14:13:30;;;;;;;2.13;1.00;;;;;;;;;;4907788;29;20051;-90
2023/08/08 14:15:57;;;;;;;3.10;1.00;;;;;;;;;;4931511;29;20418;-90
2023/08/08 14:18:26;;;;;;;2.78;0.85;;;;;;;;;;4917353;29;20411;-90
2023/08/08 14:20:54;;;;;;;2.25;1.00;;;;;;;;;;4933087;29;20052;-89
2023/08/08 14:23:23;;;;;;;1.00;0.90;;;;;;;;;;4933252;29;20058;-90
2023/08/08 14:25:53;;;;;;;1.00;0.90;;;;;;;;;;4923202;29;20062;-90
2023/08/08 14:28:22;;;;;;;1.73;0.65;;;;;;;;;;4928751;29;20530;-90
2023/08/08 14:30:50;;;;;;;2.10;1.02;;;;;;;;;;4925426;29;20044;-89
2023/08/08 14:33:17;;;;;;;3.85;1.40;;;;;;;;;;4925457;29;20048;-91
2023/08/08 14:35:47;;;;;;;1.85;0.75;;;;;;;;;;4933407;29;20044;-90
2023/08/08 14:38:17;;;;;;;1.20;0.82;;;;;;;;;;4903468;29;20062;-90
2023/08/08 14:40:47;;;;;;;3.05;0.75;;;;;;;;;;4929539;29;20055;-90
2023/08/08 14:43:17;;;;;;;1.48;0.82;;;;;;;;;;4915380;29;20059;-90
2023/08/08 14:45:44;;;;;;;10.35;2.05;;;;;;;;;;4900523;29;20062;-91
2023/08/08 14:48:11;;;;;;;2.70;1.05;;;;;;;;;;4920970;29;20533;-89
2023/08/08 14:50:39;;;;;;;2.25;1.00;;;;;;;;;;4915962;29;20527;-90
2023/08/08 14:53:10;;;;;;;2.13;1.08;;;;;;;;;;4932089;29;20052;-90
2023/08/08 14:55:37;;;;;;;1.27;0.80;;;;;;;;;;4927104;29;20059;-90
2023/08/08 14:58:05;;;;;;;1.13;0.90;;;;;;;;;;4915082;29;20793;-89